createdAt,value
2023-05-19T00:00:23.215Z,65.87
2023-05-19T00:01:25.650Z,65.97
2023-05-19T00:02:24.747Z,66.07
2023-05-19T00:03:23.238Z,66.28
2023-05-19T00:04:23.200Z,66.48
2023-05-19T00:05:23.210Z,66.89
2023-05-19T00:06:23.341Z,66.07
2023-05-19T00:07:24.131Z,65.56
2023-05-19T00:08:23.634Z,65.77
2023-05-19T00:09:23.132Z,66.48
2023-05-19T00:10:23.154Z,66.78
2023-05-19T00:11:23.280Z,66.48
2023-05-19T00:12:23.128Z,66.48
2023-05-19T00:13:23.079Z,66.38
2023-05-19T00:14:23.810Z,66.78
2023-05-19T00:15:24.156Z,66.61
2023-05-19T00:16:23.196Z,67.02
2023-05-19T00:17:23.121Z,67.33
2023-05-19T00:18:23.053Z,67.23
2023-05-19T00:19:23.140Z,66.82
2023-05-19T00:20:24.374Z,67.54
2023-05-19T00:21:23.649Z,67.54
2023-05-19T00:22:22.986Z,67.13
2023-05-19T00:23:22.990Z,67.23
2023-05-19T00:24:22.989Z,67.43
2023-05-19T00:25:23.022Z,67.02
2023-05-19T00:26:22.989Z,67.33
2023-05-19T00:27:23.689Z,66.92
2023-05-19T00:28:22.980Z,67.13
2023-05-19T00:29:22.928Z,67.43
2023-05-19T00:30:22.970Z,67.33
2023-05-19T00:31:22.981Z,66.92
2023-05-19T00:32:22.916Z,67.02
2023-05-19T00:33:24.137Z,67.36
2023-05-19T00:34:23.670Z,67.36
2023-05-19T00:35:22.849Z,67.74
2023-05-19T00:36:22.851Z,67.67
2023-05-19T00:37:22.837Z,67.87
2023-05-19T00:38:22.934Z,67.87
2023-05-19T00:39:22.898Z,67.97
2023-05-19T00:40:22.839Z,67.46
2023-05-19T00:41:22.806Z,67.46
2023-05-19T00:42:22.790Z,67.77
2023-05-19T00:43:23.289Z,67.67
2023-05-19T00:44:22.800Z,68.08
2023-05-19T00:45:22.744Z,67.77
2023-05-19T00:46:24.165Z,67.57
2023-05-19T00:47:22.905Z,67.77
2023-05-19T00:48:22.728Z,68.59
2023-05-19T00:49:22.707Z,68.38
2023-05-19T00:50:22.716Z,68.28
2023-05-19T00:51:22.695Z,68.59
2023-05-19T00:52:23.669Z,67.87
2023-05-19T00:53:22.682Z,68.38
2023-05-19T00:54:22.708Z,68.08
2023-05-19T00:55:22.708Z,67.97
2023-05-19T00:56:22.682Z,67.36
2023-05-19T00:57:22.657Z,68.18
2023-05-19T00:58:22.625Z,68.11
2023-05-19T00:59:23.757Z,68.01
2023-05-19T01:00:23.157Z,68.01
2023-05-19T01:01:22.647Z,68.11
2023-05-19T01:02:22.665Z,67.70
2023-05-19T01:03:22.680Z,68.52
2023-05-19T01:04:22.545Z,68.52
2023-05-19T01:05:23.148Z,68.32
2023-05-19T01:06:22.530Z,68.69
2023-05-19T01:07:22.540Z,68.52
2023-05-19T01:08:22.567Z,68.41
2023-05-19T01:09:22.536Z,69.13
2023-05-19T01:10:22.496Z,69.03
2023-05-19T01:11:22.480Z,68.93
2023-05-19T01:12:23.649Z,69.13
2023-05-19T01:13:22.466Z,69.54
2023-05-19T01:14:22.444Z,68.93
2023-05-19T01:15:22.435Z,69.13
2023-05-19T01:16:22.548Z,69.24
2023-05-19T01:17:22.483Z,69.75
2023-05-19T01:18:23.159Z,69.65
2023-05-19T01:19:22.515Z,69.24
2023-05-19T01:20:22.397Z,69.75
2023-05-19T01:21:23.187Z,70.06
2023-05-19T01:22:22.410Z,68.83
2023-05-19T01:23:22.361Z,69.44
2023-05-19T01:24:22.348Z,69.75
2023-05-19T01:25:23.241Z,69.57
2023-05-19T01:26:22.337Z,69.68
2023-05-19T01:27:22.317Z,69.68
2023-05-19T01:28:22.299Z,69.68
2023-05-19T01:29:22.317Z,69.68
2023-05-19T01:30:22.319Z,70.09
2023-05-19T01:31:22.406Z,69.98
2023-05-19T01:32:22.339Z,70.29
2023-05-19T01:33:22.252Z,70.40
2023-05-19T01:34:24.696Z,69.98
2023-05-19T01:35:22.343Z,70.19
2023-05-19T01:36:22.241Z,69.98
2023-05-19T01:37:22.230Z,70.09
2023-05-19T01:38:22.265Z,70.09
2023-05-19T01:39:22.182Z,70.50
2023-05-19T01:40:22.207Z,70.29
2023-05-19T01:41:22.187Z,70.70
2023-05-19T01:42:22.193Z,70.50
2023-05-19T01:43:22.182Z,70.70
2023-05-19T01:44:22.155Z,70.91
2023-05-19T01:45:22.148Z,71.25
2023-05-19T01:46:22.220Z,70.53
2023-05-19T01:47:24.287Z,70.43
2023-05-19T01:48:25.195Z,70.53
2023-05-19T01:49:22.148Z,70.73
2023-05-19T01:50:22.171Z,70.64
2023-05-19T01:51:22.140Z,71.15
2023-05-19T01:52:22.042Z,71.35
2023-05-19T01:53:22.066Z,71.56
2023-05-19T01:54:22.064Z,71.66
2023-05-19T01:55:22.027Z,71.56
2023-05-19T01:56:21.997Z,71.45
2023-05-19T01:57:22.015Z,71.45
2023-05-19T01:58:21.996Z,72.27
2023-05-19T01:59:21.987Z,71.76
2023-05-19T02:00:24.176Z,71.66
2023-05-19T02:01:22.014Z,71.45
2023-05-19T02:02:21.958Z,71.48
2023-05-19T02:03:21.967Z,71.90
2023-05-19T02:04:21.923Z,72.00
2023-05-19T02:05:22.018Z,71.80
2023-05-19T02:06:21.981Z,71.69
2023-05-19T02:07:22.807Z,71.80
2023-05-19T02:08:21.896Z,72.31
2023-05-19T02:09:21.878Z,72.61
2023-05-19T02:10:21.869Z,72.41
2023-05-19T02:11:21.860Z,72.20
2023-05-19T02:12:21.865Z,71.80
2023-05-19T02:13:24.180Z,71.69
2023-05-19T02:14:21.837Z,71.69
2023-05-19T02:15:21.801Z,72.00
2023-05-19T02:16:21.944Z,72.20
2023-05-19T02:17:21.815Z,72.20
2023-05-19T02:18:24.174Z,72.51
2023-05-19T02:19:21.869Z,73.02
2023-05-19T02:20:21.770Z,72.51
2023-05-19T02:21:21.754Z,72.41
2023-05-19T02:22:21.762Z,72.72
2023-05-19T02:23:21.782Z,72.92
2023-05-19T02:24:21.702Z,73.13
2023-05-19T02:25:21.694Z,73.02
2023-05-19T02:26:23.342Z,73.23
2023-05-19T02:27:21.698Z,72.72
2023-05-19T02:28:21.656Z,72.41
2023-05-19T02:29:21.672Z,72.61
2023-05-19T02:30:21.636Z,72.92
2023-05-19T02:31:23.719Z,73.13
2023-05-19T02:32:21.736Z,72.61
2023-05-19T02:33:21.648Z,72.92
2023-05-19T02:34:21.598Z,73.02
2023-05-19T02:35:21.613Z,73.13
2023-05-19T02:36:21.631Z,73.44
2023-05-19T02:37:21.584Z,73.23
2023-05-19T02:38:21.643Z,73.06
2023-05-19T02:39:22.872Z,73.16
2023-05-19T02:40:21.593Z,73.57
2023-05-19T02:41:21.567Z,73.16
2023-05-19T02:42:21.528Z,73.27
2023-05-19T02:43:21.518Z,73.47
2023-05-19T02:44:23.738Z,73.57
2023-05-19T02:45:23.269Z,74.08
2023-05-19T02:46:21.537Z,73.68
2023-05-19T02:47:21.537Z,73.88
2023-05-19T02:48:21.474Z,73.98
2023-05-19T02:49:21.496Z,73.78
2023-05-19T02:50:21.456Z,74.19
2023-05-19T02:51:21.420Z,73.57
2023-05-19T02:52:23.175Z,73.88
2023-05-19T02:53:21.432Z,73.88
2023-05-19T02:54:21.396Z,73.57
2023-05-19T02:55:21.527Z,73.36
2023-05-19T02:56:21.362Z,73.27
2023-05-19T02:57:23.179Z,73.78
2023-05-19T02:58:22.271Z,73.98
2023-05-19T02:59:21.720Z,73.27
2023-05-19T03:00:21.339Z,73.36
2023-05-19T03:01:21.356Z,73.47
2023-05-19T03:02:21.401Z,73.47
2023-05-19T03:03:21.360Z,73.78
2023-05-19T03:04:21.304Z,73.78
2023-05-19T03:05:23.180Z,73.47
2023-05-19T03:06:21.273Z,74.08
2023-05-19T03:07:21.269Z,74.29
2023-05-19T03:08:21.272Z,74.40
2023-05-19T03:09:21.261Z,74.80
2023-05-19T03:10:22.724Z,74.40
2023-05-19T03:11:22.192Z,74.80
2023-05-19T03:12:21.236Z,75.21
2023-05-19T03:13:21.208Z,74.60
2023-05-19T03:14:21.188Z,74.60
2023-05-19T03:15:21.176Z,74.84
2023-05-19T03:16:21.264Z,75.21
2023-05-19T03:17:21.316Z,75.52
2023-05-19T03:18:22.334Z,75.11
2023-05-19T03:19:21.270Z,75.04
2023-05-19T03:20:21.131Z,74.84
2023-05-19T03:21:21.124Z,74.53
2023-05-19T03:22:21.118Z,74.63
2023-05-19T03:23:22.819Z,74.84
2023-05-19T03:24:21.820Z,75.56
2023-05-19T03:25:21.101Z,75.56
2023-05-19T03:26:21.082Z,75.35
2023-05-19T03:27:21.068Z,75.15
2023-05-19T03:28:21.086Z,75.66
2023-05-19T03:29:21.088Z,75.87
2023-05-19T03:30:21.110Z,75.87
2023-05-19T03:31:21.695Z,75.45
2023-05-19T03:32:21.202Z,75.70
2023-05-19T03:33:21.111Z,75.80
2023-05-19T03:34:20.989Z,76.00
2023-05-19T03:35:20.991Z,76.31
2023-05-19T03:36:22.709Z,76.42
2023-05-19T03:37:21.705Z,76.21
2023-05-19T03:38:20.930Z,76.65
2023-05-19T03:39:20.921Z,77.06
2023-05-19T03:40:20.946Z,77.17
2023-05-19T03:41:20.919Z,77.37
2023-05-19T03:42:21.729Z,77.68
2023-05-19T03:43:20.884Z,78.09
2023-05-19T03:44:20.894Z,77.99
2023-05-19T03:45:20.908Z,78.13
2023-05-19T03:46:21.052Z,78.23
2023-05-19T03:47:20.880Z,78.23
2023-05-19T03:48:21.451Z,78.33
2023-05-19T03:49:22.727Z,78.44
2023-05-19T03:50:21.744Z,78.64
2023-05-19T03:51:20.871Z,78.75
2023-05-19T03:52:20.781Z,78.85
2023-05-19T03:53:20.803Z,78.96
2023-05-19T03:54:20.783Z,79.05
2023-05-19T03:55:21.703Z,79.05
2023-05-19T03:56:20.777Z,79.26
2023-05-19T03:57:20.719Z,79.05
2023-05-19T03:58:20.858Z,78.96
2023-05-19T03:59:20.745Z,79.05
2023-05-19T04:00:20.722Z,79.16
2023-05-19T04:01:20.701Z,79.16
2023-05-19T04:02:22.293Z,79.26
2023-05-19T04:03:21.411Z,79.12
2023-05-19T04:04:20.737Z,79.26
2023-05-19T04:05:20.663Z,79.47
2023-05-19T04:06:20.636Z,79.67
2023-05-19T04:07:20.652Z,79.67
2023-05-19T04:08:21.317Z,79.67
2023-05-19T04:09:20.623Z,79.77
2023-05-19T04:10:20.620Z,80.08
2023-05-19T04:11:20.639Z,80.19
2023-05-19T04:12:21.228Z,80.19
2023-05-19T04:13:20.582Z,80.39
2023-05-19T04:14:20.589Z,80.39
2023-05-19T04:15:22.203Z,80.49
2023-05-19T04:16:21.303Z,80.49
2023-05-19T04:17:20.515Z,80.70
2023-05-19T04:18:20.519Z,80.80
2023-05-19T04:19:20.554Z,80.91
2023-05-19T04:20:20.517Z,80.91
2023-05-19T04:21:21.204Z,81.01
2023-05-19T04:22:20.477Z,81.01
2023-05-19T04:23:20.474Z,81.11
2023-05-19T04:24:20.447Z,81.32
2023-05-19T04:25:20.454Z,81.32
2023-05-19T04:26:20.428Z,81.21
2023-05-19T04:27:20.423Z,81.52
2023-05-19T04:28:20.476Z,81.73
2023-05-19T04:29:21.240Z,81.73
2023-05-19T04:30:20.390Z,81.83
2023-05-19T04:31:20.492Z,81.83
2023-05-19T04:32:20.354Z,81.93
2023-05-19T04:33:20.385Z,82.04
2023-05-19T04:34:21.215Z,82.04
2023-05-19T04:35:20.327Z,82.04
2023-05-19T04:36:20.320Z,82.04
2023-05-19T04:38:37.968Z,82.24
2023-05-19T04:39:37.945Z,82.14
2023-05-19T04:40:38.011Z,82.04
2023-05-19T04:41:37.921Z,82.14
2023-05-19T04:42:37.928Z,82.34
2023-05-19T04:43:37.917Z,82.45
2023-05-19T04:44:37.888Z,82.34
2023-05-19T04:45:37.899Z,82.45
2023-05-19T04:46:37.930Z,82.55
2023-05-19T04:47:37.892Z,82.65
2023-05-19T04:48:37.849Z,82.76
2023-05-19T04:49:37.843Z,82.76
2023-05-19T04:50:37.826Z,82.76
2023-05-19T04:51:37.882Z,82.76
2023-05-19T04:52:37.832Z,82.76
2023-05-19T04:53:37.798Z,82.76
2023-05-19T04:54:37.796Z,82.76
2023-05-19T04:55:37.773Z,82.76
2023-05-19T04:56:37.797Z,82.86
2023-05-19T04:57:37.758Z,83.06
2023-05-19T04:58:38.716Z,82.86
2023-05-19T04:59:37.742Z,82.76
2023-05-19T05:00:37.722Z,82.76
2023-05-19T05:01:37.814Z,82.86
2023-05-19T05:02:37.768Z,82.96
2023-05-19T05:03:37.760Z,82.96
2023-05-19T05:04:37.692Z,82.96
2023-05-19T05:05:38.379Z,83.06
2023-05-19T05:06:37.710Z,83.06
2023-05-19T05:07:37.715Z,83.17
2023-05-19T05:08:37.658Z,83.17
2023-05-19T05:09:37.644Z,83.06
2023-05-19T05:10:37.671Z,83.17
2023-05-19T05:11:37.640Z,83.06
2023-05-19T05:12:38.383Z,83.17
2023-05-19T05:13:38.391Z,83.17
2023-05-19T05:14:37.669Z,83.17
2023-05-19T05:15:37.592Z,83.37
2023-05-19T05:16:37.646Z,83.48
2023-05-19T05:17:37.731Z,83.48
2023-05-19T05:18:38.382Z,83.33
2023-05-19T05:19:37.527Z,83.44
2023-05-19T05:20:37.612Z,83.44
2023-05-19T05:21:37.508Z,83.64
2023-05-19T05:22:37.525Z,83.85
2023-05-19T05:23:38.373Z,84.05
2023-05-19T05:24:37.485Z,84.05
2023-05-19T05:25:38.967Z,84.05
2023-05-19T05:26:38.472Z,83.95
2023-05-19T05:27:37.496Z,83.75
2023-05-19T05:28:37.453Z,83.54
2023-05-19T05:29:37.452Z,83.64
2023-05-19T05:30:37.425Z,83.85
2023-05-19T05:31:38.389Z,83.81
2023-05-19T05:32:37.498Z,83.50
2023-05-19T05:33:37.469Z,83.19
2023-05-19T05:34:37.394Z,83.19
2023-05-19T05:35:37.375Z,83.29
2023-05-19T05:36:37.373Z,83.19
2023-05-19T05:37:37.361Z,83.29
2023-05-19T05:38:38.887Z,83.19
2023-05-19T05:39:37.903Z,83.29
2023-05-19T05:40:37.322Z,83.29
2023-05-19T05:41:37.418Z,83.29
2023-05-19T05:42:37.336Z,83.40
2023-05-19T05:43:37.327Z,83.40
2023-05-19T05:44:37.899Z,83.05
2023-05-19T05:45:37.340Z,83.15
2023-05-19T05:46:37.303Z,83.36
2023-05-19T05:47:37.267Z,83.56
2023-05-19T05:48:37.242Z,83.56
2023-05-19T05:49:37.222Z,83.67
2023-05-19T05:50:37.204Z,83.56
2023-05-19T05:51:37.949Z,83.56
2023-05-19T05:52:37.892Z,83.36
2023-05-19T05:53:37.215Z,83.05
2023-05-19T05:54:37.206Z,82.64
2023-05-19T05:55:37.160Z,82.19
2023-05-19T05:56:37.150Z,82.40
2023-05-19T05:57:37.905Z,82.60
2023-05-19T05:58:37.474Z,82.50
2023-05-19T05:59:37.107Z,82.09
2023-05-19T06:00:37.096Z,82.09
2023-05-19T06:01:37.135Z,82.19
2023-05-19T06:02:37.403Z,81.95
2023-05-19T06:03:37.165Z,81.74
2023-05-19T06:04:37.122Z,81.64
2023-05-19T06:05:38.013Z,81.74
2023-05-19T06:06:37.040Z,81.64
2023-05-19T06:07:37.074Z,81.85
2023-05-19T06:08:37.014Z,81.02
2023-05-19T06:09:37.012Z,80.68
2023-05-19T06:10:37.925Z,80.68
2023-05-19T06:11:37.013Z,80.58
2023-05-19T06:12:36.998Z,80.27
2023-05-19T06:13:37.936Z,78.83
2023-05-19T06:14:36.964Z,78.53
2023-05-19T06:15:36.978Z,78.70
2023-05-19T06:16:36.996Z,78.39
2023-05-19T06:17:36.976Z,79.21
2023-05-19T06:18:36.983Z,78.80
2023-05-19T06:19:36.909Z,78.19
2023-05-19T06:20:36.940Z,77.77
2023-05-19T06:21:36.915Z,77.64
2023-05-19T06:22:36.864Z,76.31
2023-05-19T06:23:37.412Z,74.56
2023-05-19T06:24:38.751Z,74.26
2023-05-19T06:25:36.854Z,74.56
2023-05-19T06:26:39.432Z,74.56
2023-05-19T06:27:36.875Z,74.11
2023-05-19T06:28:36.816Z,74.53
2023-05-19T06:29:37.018Z,73.61
2023-05-19T06:30:36.829Z,73.50
2023-05-19T06:31:36.909Z,72.58
2023-05-19T06:32:36.805Z,72.75
2023-05-19T06:33:36.806Z,72.55
2023-05-19T06:34:37.449Z,72.45
2023-05-19T06:35:36.753Z,72.75
2023-05-19T06:36:37.422Z,73.06
2023-05-19T06:37:36.737Z,70.98
2023-05-19T06:38:36.701Z,71.49
2023-05-19T06:39:39.058Z,72.00
2023-05-19T06:40:36.729Z,71.39
2023-05-19T06:41:36.695Z,71.08
2023-05-19T06:42:36.659Z,71.29
2023-05-19T06:43:36.655Z,71.29
2023-05-19T06:44:39.442Z,70.67
2023-05-19T06:45:36.665Z,69.96
2023-05-19T06:46:36.667Z,69.21
2023-05-19T06:47:36.644Z,69.72
2023-05-19T06:48:36.635Z,70.13
2023-05-19T06:49:36.736Z,70.75
2023-05-19T06:50:36.592Z,69.93
2023-05-19T06:51:36.577Z,70.13
2023-05-19T06:52:38.922Z,70.64
2023-05-19T06:53:36.568Z,70.71
2023-05-19T06:54:36.608Z,69.59
2023-05-19T06:55:43.883Z,70.20
2023-05-19T06:56:37.561Z,70.51
2023-05-19T06:57:38.567Z,69.48
2023-05-19T06:58:38.033Z,70.61
2023-05-19T06:59:36.518Z,69.38
2023-05-19T07:00:36.578Z,69.48
2023-05-19T07:01:36.487Z,70.00
2023-05-19T07:02:36.629Z,68.63
2023-05-19T07:03:36.514Z,69.56
2023-05-19T07:04:36.454Z,70.37
2023-05-19T07:05:38.918Z,69.56
2023-05-19T07:06:36.444Z,69.24
2023-05-19T07:07:36.439Z,69.45
2023-05-19T07:08:36.388Z,68.53
2023-05-19T07:09:36.410Z,69.35
2023-05-19T07:10:38.925Z,67.71
2023-05-19T07:11:37.932Z,66.28
2023-05-19T07:12:36.359Z,68.91
2023-05-19T07:13:36.372Z,69.62
2023-05-19T07:14:36.401Z,69.01
2023-05-19T07:15:36.347Z,69.32
2023-05-19T07:16:36.389Z,69.21
2023-05-19T07:17:36.310Z,68.60
2023-05-19T07:18:38.447Z,68.40
2023-05-19T07:19:36.283Z,67.96
2023-05-19T07:20:36.310Z,67.35
2023-05-19T07:21:36.257Z,67.45
2023-05-19T07:22:36.241Z,67.55
2023-05-19T07:23:36.344Z,68.06
2023-05-19T07:24:37.594Z,68.88
2023-05-19T07:25:36.217Z,67.24
2023-05-19T07:26:36.210Z,66.53
2023-05-19T07:27:36.206Z,67.32
2023-05-19T07:28:36.217Z,68.13
2023-05-19T07:29:36.179Z,68.33
2023-05-19T07:30:36.179Z,67.72
2023-05-19T07:31:38.158Z,66.39
2023-05-19T07:32:36.222Z,65.99
2023-05-19T07:33:36.152Z,65.89
2023-05-19T07:34:36.122Z,66.06
2023-05-19T07:35:36.113Z,66.16
2023-05-19T07:36:38.425Z,66.06
2023-05-19T07:37:37.429Z,66.88
2023-05-19T07:38:36.131Z,65.86
2023-05-19T07:39:36.073Z,65.34
2023-05-19T07:40:36.072Z,65.14
2023-05-19T07:41:36.591Z,65.55
2023-05-19T07:42:36.136Z,65.04
2023-05-19T07:43:36.082Z,66.44
2023-05-19T07:44:37.016Z,66.44
2023-05-19T07:45:36.026Z,64.50
2023-05-19T07:46:36.082Z,64.70
2023-05-19T07:47:36.026Z,64.29
2023-05-19T07:48:35.994Z,63.89
2023-05-19T07:49:37.954Z,65.22
2023-05-19T07:50:37.434Z,65.01
2023-05-19T07:51:36.150Z,64.09
2023-05-19T07:52:35.943Z,63.65
2023-05-19T07:53:35.921Z,63.15
2023-05-19T07:54:35.963Z,63.45
2023-05-19T07:55:37.432Z,63.45
2023-05-19T07:56:36.012Z,63.65
2023-05-19T07:57:35.980Z,64.17
2023-05-19T07:58:35.871Z,64.84
2023-05-19T07:59:35.943Z,64.03
2023-05-19T08:00:35.976Z,63.53
2023-05-19T08:01:35.852Z,62.81
2023-05-19T08:02:37.533Z,62.30
2023-05-19T08:03:37.102Z,62.61
2023-05-19T08:04:35.914Z,62.27
2023-05-19T08:05:35.810Z,62.07
2023-05-19T08:06:35.819Z,62.07
2023-05-19T08:07:35.774Z,61.05
2023-05-19T08:08:36.998Z,62.68
2023-05-19T08:09:36.432Z,62.98
2023-05-19T08:10:35.861Z,64.20
2023-05-19T08:11:35.742Z,62.27
2023-05-19T08:12:35.735Z,62.37
2023-05-19T08:13:35.712Z,62.68
2023-05-19T08:14:35.705Z,63.09
2023-05-19T08:15:35.740Z,62.48
2023-05-19T08:16:36.950Z,62.55
2023-05-19T08:17:35.732Z,61.43
2023-05-19T08:18:35.667Z,61.63
2023-05-19T08:19:35.651Z,61.43
2023-05-19T08:20:35.870Z,61.33
2023-05-19T08:21:36.987Z,60.21
2023-05-19T08:22:36.440Z,61.74
2023-05-19T08:23:35.599Z,61.13
2023-05-19T08:24:35.631Z,61.13
2023-05-19T08:25:35.639Z,61.83
2023-05-19T08:26:37.648Z,61.13
2023-05-19T08:27:35.578Z,61.63
2023-05-19T08:28:37.574Z,60.92
2023-05-19T08:29:36.449Z,60.52
2023-05-19T08:30:35.535Z,59.80
2023-05-19T08:31:35.562Z,61.02
2023-05-19T08:32:35.555Z,61.33
2023-05-19T08:33:35.584Z,61.33
2023-05-19T08:34:36.556Z,61.43
2023-05-19T08:35:35.565Z,61.22
2023-05-19T08:36:35.464Z,61.53
2023-05-19T08:37:35.468Z,62.96
2023-05-19T08:38:35.501Z,62.32
2023-05-19T08:39:35.459Z,62.32
2023-05-19T08:40:35.582Z,62.11
2023-05-19T08:41:36.575Z,62.93
2023-05-19T08:42:36.452Z,62.11
2023-05-19T08:43:35.398Z,61.60
2023-05-19T08:44:35.394Z,61.10
2023-05-19T08:45:35.533Z,60.38
2023-05-19T08:46:35.415Z,60.15
2023-05-19T08:47:36.524Z,60.97
2023-05-19T08:48:35.393Z,59.84
2023-05-19T08:49:35.326Z,59.14
2023-05-19T08:50:35.463Z,58.33
2023-05-19T08:51:35.328Z,59.14
2023-05-19T08:52:35.299Z,59.41
2023-05-19T08:53:35.306Z,62.16
2023-05-19T08:54:35.286Z,62.05
2023-05-19T08:55:36.035Z,58.50
2023-05-19T08:56:35.255Z,58.40
2023-05-19T08:57:35.321Z,60.33
2023-05-19T08:58:35.240Z,59.99
2023-05-19T08:59:35.299Z,59.18
2023-05-19T09:00:37.067Z,60.40
2023-05-19T09:02:35.259Z,59.48
2023-05-19T09:03:35.225Z,59.26
2023-05-19T09:04:35.268Z,59.77
2023-05-19T09:05:35.505Z,59.97
2023-05-19T09:06:35.240Z,58.95
2023-05-19T09:07:36.071Z,57.93
2023-05-19T09:08:35.187Z,57.64
2023-05-19T09:09:35.110Z,57.73
2023-05-19T09:10:35.124Z,60.68
2023-05-19T09:11:35.116Z,58.24
2023-05-19T09:12:35.088Z,56.31
2023-05-19T09:13:35.992Z,56.41
2023-05-19T09:14:35.066Z,60.44
2023-05-19T09:15:35.272Z,60.65
2023-05-19T09:16:35.101Z,59.63
2023-05-19T09:17:35.071Z,57.30
2023-05-19T09:18:35.044Z,56.49
2023-05-19T09:19:35.106Z,57.58
2023-05-19T09:20:35.010Z,57.37
2023-05-19T09:21:35.055Z,56.67
2023-05-19T09:22:34.970Z,56.46
2023-05-19T09:23:34.975Z,57.07
2023-05-19T09:24:34.986Z,56.57
2023-05-19T09:25:35.233Z,56.67
2023-05-19T09:26:35.538Z,55.45
2023-05-19T09:27:34.901Z,56.54
2023-05-19T09:28:34.912Z,56.44
2023-05-19T09:29:34.911Z,54.92
2023-05-19T09:30:34.913Z,55.63
2023-05-19T09:31:35.537Z,55.12
2023-05-19T09:32:34.937Z,55.43
2023-05-19T09:33:34.873Z,54.92
2023-05-19T09:34:34.840Z,55.22
2023-05-19T09:35:35.193Z,55.52
2023-05-19T09:36:34.853Z,55.22
2023-05-19T09:37:34.824Z,55.43
2023-05-19T09:38:34.794Z,53.80
2023-05-19T09:39:35.469Z,53.07
2023-05-19T09:40:34.791Z,53.07
2023-05-19T09:41:34.761Z,53.37
2023-05-19T09:42:34.794Z,54.38
2023-05-19T09:43:34.786Z,53.60
2023-05-19T09:44:34.757Z,55.30
2023-05-19T09:45:34.955Z,55.19
2023-05-19T09:46:34.887Z,52.86
2023-05-19T09:47:34.769Z,53.58
2023-05-19T09:48:37.083Z,54.28
2023-05-19T09:49:34.700Z,53.67
2023-05-19T09:50:34.677Z,54.69
2023-05-19T09:51:34.654Z,54.08
2023-05-19T09:52:35.480Z,54.38
2023-05-19T09:53:34.657Z,54.97
2023-05-19T09:54:34.649Z,53.75
2023-05-19T09:55:34.814Z,54.86
2023-05-19T09:56:34.620Z,55.88
2023-05-19T09:57:34.616Z,55.98
2023-05-19T09:58:34.618Z,54.53
2023-05-19T09:59:34.593Z,53.93
2023-05-19T10:00:34.954Z,56.56
2023-05-19T10:01:36.065Z,55.42
2023-05-19T10:02:34.574Z,55.11
2023-05-19T10:03:34.613Z,58.76
2023-05-19T10:04:34.640Z,57.92
2023-05-19T10:05:35.864Z,56.51
2023-05-19T10:06:34.506Z,57.82
2023-05-19T10:07:34.485Z,55.16
2023-05-19T10:08:34.511Z,53.96
2023-05-19T10:09:34.476Z,53.05
2023-05-19T10:10:34.464Z,50.82
2023-05-19T10:11:34.464Z,51.25
2023-05-19T10:12:34.450Z,51.76
2023-05-19T10:13:34.438Z,53.45
2023-05-19T10:14:35.555Z,52.54
2023-05-19T10:15:40.846Z,50.74
2023-05-19T10:16:35.441Z,51.86
2023-05-19T10:17:34.436Z,52.97
2023-05-19T10:18:34.436Z,51.83
2023-05-19T10:19:34.442Z,52.23
2023-05-19T10:20:34.816Z,52.03
2023-05-19T10:21:34.335Z,52.03
2023-05-19T10:22:34.359Z,53.75
2023-05-19T10:23:34.350Z,51.32
2023-05-19T10:24:34.310Z,49.71
2023-05-19T10:25:34.475Z,50.62
2023-05-19T10:26:34.288Z,49.30
2023-05-19T10:27:36.014Z,49.10
2023-05-19T10:28:34.297Z,49.10
2023-05-19T10:29:34.313Z,50.52
2023-05-19T10:30:34.259Z,51.83
2023-05-19T10:31:34.353Z,52.94
2023-05-19T10:32:34.366Z,50.80
2023-05-19T10:33:34.227Z,49.99
2023-05-19T10:34:35.513Z,50.80
2023-05-19T10:35:34.422Z,50.19
2023-05-19T10:36:34.297Z,49.58
2023-05-19T10:37:34.168Z,51.61
2023-05-19T10:38:34.185Z,51.40
2023-05-19T10:39:34.146Z,52.01
2023-05-19T10:40:35.992Z,50.80
2023-05-19T10:41:34.186Z,54.43
2023-05-19T10:42:34.129Z,53.00
2023-05-19T10:43:34.148Z,47.74
2023-05-19T10:44:34.093Z,47.95
2023-05-19T10:45:34.389Z,50.57
2023-05-19T10:46:34.142Z,49.46
2023-05-19T10:47:34.214Z,50.87
2023-05-19T10:48:34.064Z,51.58
2023-05-19T10:49:34.051Z,50.87
2023-05-19T10:50:34.073Z,50.35
2023-05-19T10:51:34.054Z,49.04
2023-05-19T10:52:34.107Z,49.13
2023-05-19T10:53:34.120Z,50.15
2023-05-19T10:54:34.004Z,50.95
2023-05-19T10:55:34.161Z,49.04
2023-05-19T10:56:34.049Z,49.24
2023-05-19T10:57:33.970Z,51.35
2023-05-19T10:58:35.710Z,49.64
2023-05-19T10:59:34.026Z,49.13
2023-05-19T11:00:33.957Z,48.71
2023-05-19T11:01:34.086Z,51.23
2023-05-19T11:02:33.939Z,47.50
2023-05-19T11:03:33.926Z,48.10
2023-05-19T11:04:33.990Z,48.21
2023-05-19T11:05:36.498Z,47.80
2023-05-19T11:06:35.498Z,47.60
2023-05-19T11:07:33.875Z,48.71
2023-05-19T11:08:33.877Z,52.62
2023-05-19T11:09:39.992Z,51.00
2023-05-19T11:10:35.498Z,51.61
2023-05-19T11:11:35.503Z,47.47
2023-05-19T11:12:34.506Z,48.26
2023-05-19T11:13:33.824Z,47.96
2023-05-19T11:14:33.798Z,48.86
2023-05-19T11:15:34.061Z,47.86
2023-05-19T11:16:33.806Z,48.46
2023-05-19T11:17:35.014Z,46.04
2023-05-19T11:18:35.560Z,45.66
2023-05-19T11:19:35.515Z,47.38
2023-05-19T11:20:33.766Z,47.38
2023-05-19T11:21:33.737Z,47.45
2023-05-19T11:22:33.698Z,46.65
2023-05-19T11:23:35.390Z,46.45
2023-05-19T11:24:35.548Z,47.25
2023-05-19T11:25:34.535Z,48.36
2023-05-19T11:26:33.654Z,47.55
2023-05-19T11:27:33.689Z,48.46
2023-05-19T11:28:33.647Z,45.74
2023-05-19T11:29:34.830Z,45.54
2023-05-19T11:30:33.608Z,47.13
2023-05-19T11:31:35.111Z,46.93
2023-05-19T11:32:35.093Z,47.74
2023-05-19T11:33:33.607Z,47.94
2023-05-19T11:34:33.569Z,47.03
2023-05-19T11:35:35.398Z,47.51
2023-05-19T11:36:33.558Z,45.59
2023-05-19T11:37:35.015Z,47.51
2023-05-19T11:38:35.005Z,48.11
2023-05-19T11:39:33.524Z,47.69
2023-05-19T11:40:33.517Z,46.38
2023-05-19T11:41:33.495Z,45.17
2023-05-19T11:42:33.551Z,49.62
2023-05-19T11:43:33.490Z,51.51
2023-05-19T11:44:34.041Z,45.27
2023-05-19T11:45:33.741Z,45.37
2023-05-19T11:46:33.482Z,48.49
2023-05-19T11:47:42.028Z,44.09
2023-05-19T11:48:34.426Z,44.19
2023-05-19T11:49:33.448Z,43.18
2023-05-19T11:50:35.013Z,43.08
2023-05-19T11:51:34.022Z,42.40
2023-05-19T11:52:33.394Z,43.28
2023-05-19T11:53:35.144Z,44.59
2023-05-19T11:54:33.353Z,47.00
2023-05-19T11:55:33.375Z,45.87
2023-05-19T11:56:33.409Z,45.07
2023-05-19T11:57:33.382Z,43.66
2023-05-19T11:58:34.048Z,43.96
2023-05-19T11:59:34.981Z,43.26
2023-05-19T12:00:33.302Z,43.54
2023-05-19T12:01:33.311Z,46.15
2023-05-19T12:02:33.387Z,46.86
2023-05-19T12:03:34.677Z,49.95
2023-05-19T12:04:34.067Z,48.05
2023-05-19T12:05:36.640Z,44.93
2023-05-19T12:06:34.371Z,45.73
2023-05-19T12:07:33.221Z,43.62
2023-05-19T12:08:33.199Z,41.93
2023-05-19T12:09:34.027Z,43.14
2023-05-19T12:10:33.187Z,45.23
2023-05-19T12:11:33.227Z,42.11
2023-05-19T12:12:33.173Z,41.11
2023-05-19T12:13:33.160Z,41.21
2023-05-19T12:14:33.156Z,40.00
2023-05-19T12:15:33.413Z,41.01
2023-05-19T12:16:34.618Z,42.32
2023-05-19T12:17:34.047Z,41.59
2023-05-19T12:18:33.103Z,42.19
2023-05-19T12:19:33.139Z,40.89
2023-05-19T12:20:33.112Z,41.79
2023-05-19T12:21:34.293Z,45.10
2023-05-19T12:22:34.024Z,42.47
2023-05-19T12:23:33.041Z,40.47
2023-05-19T12:24:33.063Z,39.26
2023-05-19T12:25:33.264Z,41.17
2023-05-19T12:26:33.016Z,40.97
2023-05-19T12:27:34.746Z,42.07
2023-05-19T12:28:33.019Z,39.56
2023-05-19T12:29:34.124Z,43.08
2023-05-19T12:30:33.910Z,43.18
2023-05-19T12:31:32.995Z,41.35
2023-05-19T12:32:32.961Z,40.45
2023-05-19T12:33:33.662Z,39.45
2023-05-19T12:34:32.960Z,40.15
2023-05-19T12:35:33.674Z,40.75
2023-05-19T12:36:32.941Z,40.15
2023-05-19T12:37:32.896Z,39.34
2023-05-19T12:38:35.529Z,40.85
2023-05-19T12:39:32.921Z,44.06
2023-05-19T12:40:33.076Z,44.79
2023-05-19T12:41:32.905Z,44.76
2023-05-19T12:42:33.653Z,44.18
2023-05-19T12:43:33.544Z,42.66
2023-05-19T12:44:32.900Z,42.76
2023-05-19T12:45:32.835Z,43.46
2023-05-19T12:46:32.939Z,42.83
2023-05-19T12:47:32.849Z,43.54
2023-05-19T12:48:33.543Z,43.94
2023-05-19T12:49:32.797Z,43.54
2023-05-19T12:50:33.077Z,41.41
2023-05-19T12:51:35.555Z,40.23
2023-05-19T12:52:32.786Z,40.43
2023-05-19T12:53:32.771Z,40.63
2023-05-19T12:54:32.797Z,40.73